sensor_id;sensor_type;location;lat;lon;timestamp;P1;durP1;ratioP1;P2;durP2;ratioP2
53867;SDS011;41577;47.470;19.080;2023-04-24T00:00:08;18.63;;;6.43;;
53867;SDS011;41577;47.470;19.080;2023-04-24T00:00:21;15.88;;;6.30;;
53867;SDS011;41577;47.470;19.080;2023-04-24T00:00:33;11.32;;;6.38;;
53867;SDS011;41577;47.470;19.080;2023-04-24T00:00:45;13.55;;;6.40;;
53867;SDS011;41577;47.470;19.080;2023-04-24T00:00:57;14.18;;;6.18;;
53867;SDS011;41577;47.470;19.080;2023-04-24T00:01:09;12.15;;;5.97;;
53867;SDS011;41577;47.470;19.080;2023-04-24T00:01:21;12.80;;;6.18;;
53867;SDS011;41577;47.470;19.080;2023-04-24T00:01:33;15.30;;;6.80;;
53867;SDS011;41577;47.470;19.080;2023-04-24T00:01:45;15.18;;;6.38;;
53867;SDS011;41577;47.470;19.080;2023-04-24T00:01:57;22.73;;;6.47;;
53867;SDS011;41577;47.470;19.080;2023-04-24T00:02:09;22.02;;;6.60;;
53867;SDS011;41577;47.470;19.080;2023-04-24T00:02:21;17.45;;;6.35;;
53867;SDS011;41577;47.470;19.080;2023-04-24T00:02:34;11.93;;;6.13;;
53867;SDS011;41577;47.470;19.080;2023-04-24T00:02:46;18.75;;;6.32;;
53867;SDS011;41577;47.470;19.080;2023-04-24T00:02:58;30.25;;;6.57;;
53867;SDS011;41577;47.470;19.080;2023-04-24T00:03:11;29.45;;;6.43;;
53867;SDS011;41577;47.470;19.080;2023-04-24T00:03:23;11.50;;;5.82;;
53867;SDS011;41577;47.470;19.080;2023-04-24T00:03:36;10.82;;;6.07;;
53867;SDS011;41577;47.470;19.080;2023-04-24T00:03:48;10.05;;;6.15;;
53867;SDS011;41577;47.470;19.080;2023-04-24T00:04:00;8.43;;;5.55;;
53867;SDS011;41577;47.470;19.080;2023-04-24T00:04:13;8.90;;;5.63;;
53867;SDS011;41577;47.470;19.080;2023-04-24T00:04:25;11.25;;;5.82;;
53867;SDS011;41577;47.470;19.080;2023-04-24T00:04:37;14.98;;;6.32;;
53867;SDS011;41577;47.470;19.080;2023-04-24T00:04:49;19.92;;;6.78;;
53867;SDS011;41577;47.470;19.080;2023-04-24T00:05:01;23.20;;;7.07;;
53867;SDS011;41577;47.470;19.080;2023-04-24T00:05:14;23.00;;;6.95;;
53867;SDS011;41577;47.470;19.080;2023-04-24T00:05:26;22.27;;;7.03;;
53867;SDS011;41577;47.470;19.080;2023-04-24T00:05:38;24.55;;;6.90;;
53867;SDS011;41577;47.470;19.080;2023-04-24T00:05:50;25.33;;;7.05;;
53867;SDS011;41577;47.470;19.080;2023-04-24T00:06:03;16.35;;;6.97;;
53867;SDS011;41577;47.470;19.080;2023-04-24T00:06:15;16.73;;;7.25;;
53867;SDS011;41577;47.470;19.080;2023-04-24T00:06:27;16.65;;;6.95;;
53867;SDS011;41577;47.470;19.080;2023-04-24T00:06:39;19.80;;;6.53;;
53867;SDS011;41577;47.470;19.080;2023-04-24T00:06:51;21.67;;;6.65;;
53867;SDS011;41577;47.470;19.080;2023-04-24T00:07:03;22.60;;;6.47;;
53867;SDS011;41577;47.470;19.080;2023-04-24T00:07:15;19.58;;;6.15;;
53867;SDS011;41577;47.470;19.080;2023-04-24T00:07:27;12.65;;;5.82;;
53867;SDS011;41577;47.470;19.080;2023-04-24T00:07:39;10.60;;;5.95;;
53867;SDS011;41577;47.470;19.080;2023-04-24T00:07:51;10.98;;;6.07;;
53867;SDS011;41577;47.470;19.080;2023-04-24T00:08:02;13.23;;;6.03;;
53867;SDS011;41577;47.470;19.080;2023-04-24T00:08:14;15.13;;;6.22;;
53867;SDS011;41577;47.470;19.080;2023-04-24T00:08:26;14.25;;;6.15;;
53867;SDS011;41577;47.470;19.080;2023-04-24T00:08:38;13.40;;;5.68;;
53867;SDS011;41577;47.470;19.080;2023-04-24T00:08:50;15.10;;;6.50;;
53867;SDS011;41577;47.470;19.080;2023-04-24T00:09:02;18.45;;;7.85;;
53867;SDS011;41577;47.470;19.080;2023-04-24T00:09:14;22.08;;;9.40;;
53867;SDS011;41577;47.470;19.080;2023-04-24T00:09:26;24.75;;;9.98;;
53867;SDS011;41577;47.470;19.080;2023-04-24T00:09:38;21.88;;;10.68;;
53867;SDS011;41577;47.470;19.080;2023-04-24T00:09:50;26.73;;;11.73;;
53867;SDS011;41577;47.470;19.080;2023-04-24T00:10:02;30.02;;;12.18;;
53867;SDS011;41577;47.470;19.080;2023-04-24T00:10:14;26.15;;;10.88;;
53867;SDS011;41577;47.470;19.080;2023-04-24T00:10:26;22.95;;;9.70;;
53867;SDS011;41577;47.470;19.080;2023-04-24T00:10:38;19.85;;;8.10;;
53867;SDS011;41577;47.470;19.080;2023-04-24T00:10:49;18.90;;;7.82;;
53867;SDS011;41577;47.470;19.080;2023-04-24T00:11:02;15.52;;;7.15;;
53867;SDS011;41577;47.470;19.080;2023-04-24T00:11:13;16.30;;;6.90;;
53867;SDS011;41577;47.470;19.080;2023-04-24T00:11:26;16.63;;;7.00;;
53867;SDS011;41577;47.470;19.080;2023-04-24T00:11:38;14.43;;;6.95;;
53867;SDS011;41577;47.470;19.080;2023-04-24T00:11:49;15.68;;;6.63;;
53867;SDS011;41577;47.470;19.080;2023-04-24T00:12:01;15.23;;;6.63;;
53867;SDS011;41577;47.470;19.080;2023-04-24T00:12:13;14.95;;;6.72;;
53867;SDS011;41577;47.470;19.080;2023-04-24T00:12:25;12.18;;;7.68;;
53867;SDS011;41577;47.470;19.080;2023-04-24T00:12:38;20.38;;;9.15;;
53867;SDS011;41577;47.470;19.080;2023-04-24T00:12:49;25.48;;;10.77;;
53867;SDS011;41577;47.470;19.080;2023-04-24T00:13:02;28.38;;;11.18;;
53867;SDS011;41577;47.470;19.080;2023-04-24T00:13:13;23.83;;;10.85;;
53867;SDS011;41577;47.470;19.080;2023-04-24T00:13:25;17.58;;;9.77;;
53867;SDS011;41577;47.470;19.080;2023-04-24T00:13:38;16.13;;;9.35;;
53867;SDS011;41577;47.470;19.080;2023-04-24T00:13:50;15.43;;;8.80;;
53867;SDS011;41577;47.470;19.080;2023-04-24T00:14:02;16.67;;;8.23;;
53867;SDS011;41577;47.470;19.080;2023-04-24T00:14:14;17.52;;;8.05;;
53867;SDS011;41577;47.470;19.080;2023-04-24T00:14:26;16.50;;;8.18;;
53867;SDS011;41577;47.470;19.080;2023-04-24T00:14:38;15.43;;;8.15;;
53867;SDS011;41577;47.470;19.080;2023-04-24T00:14:50;16.20;;;7.95;;
53867;SDS011;41577;47.470;19.080;2023-04-24T00:15:02;17.63;;;8.32;;
53867;SDS011;41577;47.470;19.080;2023-04-24T00:15:14;16.60;;;8.27;;
53867;SDS011;41577;47.470;19.080;2023-04-24T00:15:26;15.35;;;8.27;;
53867;SDS011;41577;47.470;19.080;2023-04-24T00:15:38;12.52;;;7.85;;
53867;SDS011;41577;47.470;19.080;2023-04-24T00:15:50;13.50;;;7.35;;
53867;SDS011;41577;47.470;19.080;2023-04-24T00:16:02;15.04;;;6.96;;
53867;SDS011;41577;47.470;19.080;2023-04-24T00:16:14;16.33;;;6.97;;
53867;SDS011;41577;47.470;19.080;2023-04-24T00:16:26;14.70;;;7.13;;
53867;SDS011;41577;47.470;19.080;2023-04-24T00:16:38;11.63;;;6.70;;
53867;SDS011;41577;47.470;19.080;2023-04-24T00:16:53;14.93;;;6.43;;
53867;SDS011;41577;47.470;19.080;2023-04-24T00:17:05;16.85;;;6.60;;
53867;SDS011;41577;47.470;19.080;2023-04-24T00:17:17;17.27;;;7.13;;
53867;SDS011;41577;47.470;19.080;2023-04-24T00:17:29;15.52;;;7.18;;
53867;SDS011;41577;47.470;19.080;2023-04-24T00:17:41;15.48;;;7.20;;
53867;SDS011;41577;47.470;19.080;2023-04-24T00:17:53;15.10;;;7.13;;
53867;SDS011;41577;47.470;19.080;2023-04-24T00:18:05;18.85;;;7.70;;
53867;SDS011;41577;47.470;19.080;2023-04-24T00:18:17;18.08;;;7.40;;
53867;SDS011;41577;47.470;19.080;2023-04-24T00:18:29;17.08;;;7.43;;
53867;SDS011;41577;47.470;19.080;2023-04-24T00:18:41;14.73;;;6.93;;
53867;SDS011;41577;47.470;19.080;2023-04-24T00:18:53;12.90;;;6.72;;
53867;SDS011;41577;47.470;19.080;2023-04-24T00:19:05;13.70;;;6.47;;
53867;SDS011;41577;47.470;19.080;2023-04-24T00:19:16;15.38;;;6.65;;
53867;SDS011;41577;47.470;19.080;2023-04-24T00:19:28;15.35;;;6.72;;
53867;SDS011;41577;47.470;19.080;2023-04-24T00:19:40;15.30;;;6.70;;
53867;SDS011;41577;47.470;19.080;2023-04-24T00:19:53;18.05;;;7.25;;
53867;SDS011;41577;47.470;19.080;2023-04-24T00:20:05;21.00;;;7.93;;
53867;SDS011;41577;47.470;19.080;2023-04-24T00:20:18;19.17;;;7.93;;
53867;SDS011;41577;47.470;19.080;2023-04-24T00:20:30;18.58;;;7.97;;
53867;SDS011;41577;47.470;19.080;2023-04-24T00:20:42;15.00;;;7.53;;
53867;SDS011;41577;47.470;19.080;2023-04-24T00:20:54;15.75;;;7.95;;
53867;SDS011;41577;47.470;19.080;2023-04-24T00:21:07;16.08;;;8.15;;
53867;SDS011;41577;47.470;19.080;2023-04-24T00:21:19;22.27;;;9.02;;
53867;SDS011;41577;47.470;19.080;2023-04-24T00:21:31;28.15;;;8.98;;
53867;SDS011;41577;47.470;19.080;2023-04-24T00:21:43;21.60;;;8.43;;
53867;SDS011;41577;47.470;19.080;2023-04-24T00:21:55;17.00;;;8.57;;
53867;SDS011;41577;47.470;19.080;2023-04-24T00:22:07;19.58;;;9.23;;
53867;SDS011;41577;47.470;19.080;2023-04-24T00:22:19;18.90;;;9.43;;
53867;SDS011;41577;47.470;19.080;2023-04-24T00:22:31;23.10;;;9.82;;
53867;SDS011;41577;47.470;19.080;2023-04-24T00:22:43;25.33;;;10.45;;
53867;SDS011;41577;47.470;19.080;2023-04-24T00:22:55;20.50;;;9.75;;
53867;SDS011;41577;47.470;19.080;2023-04-24T00:23:07;20.42;;;8.88;;
53867;SDS011;41577;47.470;19.080;2023-04-24T00:23:19;16.92;;;8.40;;
53867;SDS011;41577;47.470;19.080;2023-04-24T00:23:31;14.98;;;8.30;;
53867;SDS011;41577;47.470;19.080;2023-04-24T00:23:43;16.77;;;8.45;;
53867;SDS011;41577;47.470;19.080;2023-04-24T00:23:55;19.42;;;9.13;;
53867;SDS011;41577;47.470;19.080;2023-04-24T00:24:07;20.42;;;9.45;;
53867;SDS011;41577;47.470;19.080;2023-04-24T00:24:19;19.88;;;9.27;;
53867;SDS011;41577;47.470;19.080;2023-04-24T00:24:32;19.52;;;9.02;;
53867;SDS011;41577;47.470;19.080;2023-04-24T00:24:44;16.33;;;8.80;;
53867;SDS011;41577;47.470;19.080;2023-04-24T00:24:56;16.27;;;8.50;;
53867;SDS011;41577;47.470;19.080;2023-04-24T00:25:08;17.75;;;8.38;;
53867;SDS011;41577;47.470;19.080;2023-04-24T00:25:20;21.63;;;8.60;;
53867;SDS011;41577;47.470;19.080;2023-04-24T00:25:32;18.60;;;8.63;;
53867;SDS011;41577;47.470;19.080;2023-04-24T00:25:44;17.55;;;8.18;;
53867;SDS011;41577;47.470;19.080;2023-04-24T00:25:56;16.95;;;8.60;;
53867;SDS011;41577;47.470;19.080;2023-04-24T00:26:08;14.93;;;8.65;;
53867;SDS011;41577;47.470;19.080;2023-04-24T00:26:20;16.70;;;8.57;;
53867;SDS011;41577;47.470;19.080;2023-04-24T00:26:31;19.17;;;8.77;;
53867;SDS011;41577;47.470;19.080;2023-04-24T00:26:43;21.90;;;9.15;;
53867;SDS011;41577;47.470;19.080;2023-04-24T00:26:55;19.38;;;9.02;;
53867;SDS011;41577;47.470;19.080;2023-04-24T00:27:07;18.35;;;8.95;;
53867;SDS011;41577;47.470;19.080;2023-04-24T00:27:19;22.85;;;9.07;;
53867;SDS011;41577;47.470;19.080;2023-04-24T00:27:31;24.50;;;8.25;;
53867;SDS011;41577;47.470;19.080;2023-04-24T00:27:43;23.73;;;8.13;;
53867;SDS011;41577;47.470;19.080;2023-04-24T00:27:55;20.48;;;7.72;;
53867;SDS011;41577;47.470;19.080;2023-04-24T00:28:07;18.52;;;7.68;;
53867;SDS011;41577;47.470;19.080;2023-04-24T00:28:19;16.83;;;7.78;;
53867;SDS011;41577;47.470;19.080;2023-04-24T00:28:31;15.73;;;7.65;;
53867;SDS011;41577;47.470;19.080;2023-04-24T00:28:42;17.05;;;7.70;;
53867;SDS011;41577;47.470;19.080;2023-04-24T00:28:54;17.08;;;7.57;;
53867;SDS011;41577;47.470;19.080;2023-04-24T00:29:06;16.55;;;7.40;;
53867;SDS011;41577;47.470;19.080;2023-04-24T00:29:18;12.50;;;7.53;;
53867;SDS011;41577;47.470;19.080;2023-04-24T00:29:30;14.98;;;7.65;;
53867;SDS011;41577;47.470;19.080;2023-04-24T00:29:42;14.40;;;7.05;;
53867;SDS011;41577;47.470;19.080;2023-04-24T00:29:54;19.65;;;7.25;;
53867;SDS011;41577;47.470;19.080;2023-04-24T00:30:07;23.98;;;7.55;;
53867;SDS011;41577;47.470;19.080;2023-04-24T00:30:19;24.02;;;7.70;;
53867;SDS011;41577;47.470;19.080;2023-04-24T00:30:31;24.25;;;7.82;;
53867;SDS011;41577;47.470;19.080;2023-04-24T00:30:43;21.38;;;7.15;;
53867;SDS011;41577;47.470;19.080;2023-04-24T00:30:55;26.48;;;6.97;;
53867;SDS011;41577;47.470;19.080;2023-04-24T00:31:07;23.42;;;6.90;;
53867;SDS011;41577;47.470;19.080;2023-04-24T00:31:20;15.77;;;6.93;;
53867;SDS011;41577;47.470;19.080;2023-04-24T00:31:31;12.93;;;7.15;;
53867;SDS011;41577;47.470;19.080;2023-04-24T00:31:43;15.00;;;7.40;;
53867;SDS011;41577;47.470;19.080;2023-04-24T00:31:56;16.27;;;7.18;;
53867;SDS011;41577;47.470;19.080;2023-04-24T00:32:08;14.23;;;6.63;;
53867;SDS011;41577;47.470;19.080;2023-04-24T00:32:20;15.13;;;6.65;;
53867;SDS011;41577;47.470;19.080;2023-04-24T00:32:32;18.20;;;6.90;;
53867;SDS011;41577;47.470;19.080;2023-04-24T00:32:44;19.63;;;7.15;;
53867;SDS011;41577;47.470;19.080;2023-04-24T00:32:56;25.17;;;6.78;;
53867;SDS011;41577;47.470;19.080;2023-04-24T00:33:09;24.67;;;6.57;;
53867;SDS011;41577;47.470;19.080;2023-04-24T00:33:21;22.92;;;6.70;;
53867;SDS011;41577;47.470;19.080;2023-04-24T00:33:34;17.45;;;6.53;;
53867;SDS011;41577;47.470;19.080;2023-04-24T00:33:46;17.75;;;6.32;;
53867;SDS011;41577;47.470;19.080;2023-04-24T00:33:58;17.55;;;6.35;;
53867;SDS011;41577;47.470;19.080;2023-04-24T00:34:09;21.98;;;6.35;;
53867;SDS011;41577;47.470;19.080;2023-04-24T00:34:21;23.42;;;6.50;;
53867;SDS011;41577;47.470;19.080;2023-04-24T00:34:33;17.05;;;6.30;;
53867;SDS011;41577;47.470;19.080;2023-04-24T00:34:45;10.75;;;6.05;;
53867;SDS011;41577;47.470;19.080;2023-04-24T00:34:57;13.63;;;5.85;;
53867;SDS011;41577;47.470;19.080;2023-04-24T00:35:09;19.63;;;5.80;;
53867;SDS011;41577;47.470;19.080;2023-04-24T00:35:21;19.27;;;5.85;;
53867;SDS011;41577;47.470;19.080;2023-04-24T00:35:33;16.85;;;6.15;;
53867;SDS011;41577;47.470;19.080;2023-04-24T00:35:45;15.32;;;6.40;;
53867;SDS011;41577;47.470;19.080;2023-04-24T00:35:57;14.60;;;6.55;;
53867;SDS011;41577;47.470;19.080;2023-04-24T00:36:13;15.70;;;6.43;;
53867;SDS011;41577;47.470;19.080;2023-04-24T00:36:25;15.57;;;6.07;;
53867;SDS011;41577;47.470;19.080;2023-04-24T00:36:37;12.57;;;6.03;;
53867;SDS011;41577;47.470;19.080;2023-04-24T00:36:48;11.23;;;6.05;;
53867;SDS011;41577;47.470;19.080;2023-04-24T00:37:02;14.63;;;6.07;;
53867;SDS011;41577;47.470;19.080;2023-04-24T00:37:13;14.23;;;6.18;;
53867;SDS011;41577;47.470;19.080;2023-04-24T00:37:28;11.30;;;5.70;;
53867;SDS011;41577;47.470;19.080;2023-04-24T00:37:40;13.82;;;5.75;;
53867;SDS011;41577;47.470;19.080;2023-04-24T00:37:53;17.50;;;6.32;;
53867;SDS011;41577;47.470;19.080;2023-04-24T00:38:05;16.40;;;6.28;;
53867;SDS011;41577;47.470;19.080;2023-04-24T00:38:17;13.15;;;6.15;;
53867;SDS011;41577;47.470;19.080;2023-04-24T00:38:28;14.10;;;6.13;;
53867;SDS011;41577;47.470;19.080;2023-04-24T00:38:40;13.43;;;6.07;;
53867;SDS011;41577;47.470;19.080;2023-04-24T00:38:52;10.95;;;5.85;;
53867;SDS011;41577;47.470;19.080;2023-04-24T00:39:04;8.82;;;5.65;;
53867;SDS011;41577;47.470;19.080;2023-04-24T00:39:16;7.90;;;5.60;;
53867;SDS011;41577;47.470;19.080;2023-04-24T00:39:28;9.40;;;5.47;;
53867;SDS011;41577;47.470;19.080;2023-04-24T00:39:40;14.38;;;5.63;;
53867;SDS011;41577;47.470;19.080;2023-04-24T00:39:52;17.13;;;6.07;;
53867;SDS011;41577;47.470;19.080;2023-04-24T00:40:05;19.25;;;6.13;;
53867;SDS011;41577;47.470;19.080;2023-04-24T00:40:17;22.10;;;6.28;;
53867;SDS011;41577;47.470;19.080;2023-04-24T00:40:29;20.92;;;6.50;;
53867;SDS011;41577;47.470;19.080;2023-04-24T00:40:42;18.98;;;6.38;;
53867;SDS011;41577;47.470;19.080;2023-04-24T00:40:54;17.80;;;6.03;;
53867;SDS011;41577;47.470;19.080;2023-04-24T00:41:07;19.48;;;6.10;;
53867;SDS011;41577;47.470;19.080;2023-04-24T00:41:19;26.10;;;6.20;;
53867;SDS011;41577;47.470;19.080;2023-04-24T00:41:31;26.67;;;6.18;;
53867;SDS011;41577;47.470;19.080;2023-04-24T00:41:43;20.50;;;5.80;;
53867;SDS011;41577;47.470;19.080;2023-04-24T00:41:55;11.63;;;6.10;;
53867;SDS011;41577;47.470;19.080;2023-04-24T00:42:07;11.73;;;6.05;;
53867;SDS011;41577;47.470;19.080;2023-04-24T00:42:19;16.48;;;6.20;;
53867;SDS011;41577;47.470;19.080;2023-04-24T00:42:31;17.08;;;5.70;;
53867;SDS011;41577;47.470;19.080;2023-04-24T00:42:44;21.15;;;6.00;;
53867;SDS011;41577;47.470;19.080;2023-04-24T00:42:56;23.58;;;6.10;;
53867;SDS011;41577;47.470;19.080;2023-04-24T00:43:08;19.23;;;5.85;;
53867;SDS011;41577;47.470;19.080;2023-04-24T00:43:20;12.13;;;5.70;;
53867;SDS011;41577;47.470;19.080;2023-04-24T00:43:38;15.02;;;5.70;;
53867;SDS011;41577;47.470;19.080;2023-04-24T00:43:51;17.52;;;5.88;;
53867;SDS011;41577;47.470;19.080;2023-04-24T00:44:03;17.75;;;5.85;;
53867;SDS011;41577;47.470;19.080;2023-04-24T00:44:15;18.08;;;6.03;;
53867;SDS011;41577;47.470;19.080;2023-04-24T00:44:27;14.68;;;6.28;;
53867;SDS011;41577;47.470;19.080;2023-04-24T00:44:39;14.80;;;6.30;;
53867;SDS011;41577;47.470;19.080;2023-04-24T00:44:52;15.20;;;6.25;;
53867;SDS011;41577;47.470;19.080;2023-04-24T00:45:05;20.15;;;6.60;;
53867;SDS011;41577;47.470;19.080;2023-04-24T00:45:18;18.20;;;6.22;;
53867;SDS011;41577;47.470;19.080;2023-04-24T00:45:30;17.17;;;6.28;;
53867;SDS011;41577;47.470;19.080;2023-04-24T00:45:42;19.30;;;6.07;;
53867;SDS011;41577;47.470;19.080;2023-04-24T00:45:54;19.33;;;6.13;;
53867;SDS011;41577;47.470;19.080;2023-04-24T00:46:06;17.92;;;6.32;;
53867;SDS011;41577;47.470;19.080;2023-04-24T00:46:18;13.52;;;6.25;;
53867;SDS011;41577;47.470;19.080;2023-04-24T00:46:31;19.90;;;6.68;;
53867;SDS011;41577;47.470;19.080;2023-04-24T00:46:43;24.52;;;6.45;;
53867;SDS011;41577;47.470;19.080;2023-04-24T00:46:55;23.02;;;6.32;;
53867;SDS011;41577;47.470;19.080;2023-04-24T00:47:08;27.50;;;6.50;;
53867;SDS011;41577;47.470;19.080;2023-04-24T00:47:22;29.92;;;7.00;;
53867;SDS011;41577;47.470;19.080;2023-04-24T00:47:34;30.27;;;6.50;;
53867;SDS011;41577;47.470;19.080;2023-04-24T00:47:45;24.95;;;6.32;;
53867;SDS011;41577;47.470;19.080;2023-04-24T00:47:59;24.08;;;6.75;;
53867;SDS011;41577;47.470;19.080;2023-04-24T00:48:12;17.98;;;6.40;;
53867;SDS011;41577;47.470;19.080;2023-04-24T00:48:24;17.58;;;6.28;;
53867;SDS011;41577;47.470;19.080;2023-04-24T00:48:36;16.00;;;5.88;;
53867;SDS011;41577;47.470;19.080;2023-04-24T00:48:50;17.80;;;5.93;;
53867;SDS011;41577;47.470;19.080;2023-04-24T00:49:01;17.80;;;5.97;;
53867;SDS011;41577;47.470;19.080;2023-04-24T00:49:14;16.10;;;6.25;;
53867;SDS011;41577;47.470;19.080;2023-04-24T00:49:26;17.80;;;5.78;;
53867;SDS011;41577;47.470;19.080;2023-04-24T00:49:39;19.10;;;5.93;;
53867;SDS011;41577;47.470;19.080;2023-04-24T00:49:51;16.95;;;6.47;;
53867;SDS011;41577;47.470;19.080;2023-04-24T00:50:04;14.05;;;6.30;;
53867;SDS011;41577;47.470;19.080;2023-04-24T00:50:16;13.30;;;5.85;;
53867;SDS011;41577;47.470;19.080;2023-04-24T00:50:29;15.65;;;6.20;;
53867;SDS011;41577;47.470;19.080;2023-04-24T00:50:41;17.08;;;6.97;;
53867;SDS011;41577;47.470;19.080;2023-04-24T00:50:53;16.17;;;7.05;;
53867;SDS011;41577;47.470;19.080;2023-04-24T00:51:05;16.65;;;7.07;;
53867;SDS011;41577;47.470;19.080;2023-04-24T00:51:18;15.52;;;6.70;;
53867;SDS011;41577;47.470;19.080;2023-04-24T00:51:30;16.52;;;6.18;;
53867;SDS011;41577;47.470;19.080;2023-04-24T00:51:43;16.45;;;6.30;;
53867;SDS011;41577;47.470;19.080;2023-04-24T00:51:55;15.48;;;6.38;;
53867;SDS011;41577;47.470;19.080;2023-04-24T00:52:07;13.13;;;6.30;;
53867;SDS011;41577;47.470;19.080;2023-04-24T00:52:19;14.43;;;6.80;;
53867;SDS011;41577;47.470;19.080;2023-04-24T00:52:31;18.10;;;6.80;;
53867;SDS011;41577;47.470;19.080;2023-04-24T00:52:43;24.58;;;6.90;;
53867;SDS011;41577;47.470;19.080;2023-04-24T00:52:54;26.00;;;7.15;;
53867;SDS011;41577;47.470;19.080;2023-04-24T00:53:06;21.45;;;7.45;;
53867;SDS011;41577;47.470;19.080;2023-04-24T00:53:18;14.95;;;7.72;;
53867;SDS011;41577;47.470;19.080;2023-04-24T00:53:30;17.02;;;7.53;;
53867;SDS011;41577;47.470;19.080;2023-04-24T00:53:42;21.23;;;7.25;;
53867;SDS011;41577;47.470;19.080;2023-04-24T00:53:54;20.98;;;7.07;;
53867;SDS011;41577;47.470;19.080;2023-04-24T00:54:06;22.10;;;7.80;;
53867;SDS011;41577;47.470;19.080;2023-04-24T00:54:18;21.58;;;8.52;;
53867;SDS011;41577;47.470;19.080;2023-04-24T00:54:30;21.20;;;8.43;;
53867;SDS011;41577;47.470;19.080;2023-04-24T00:54:42;24.25;;;9.30;;
53867;SDS011;41577;47.470;19.080;2023-04-24T00:54:54;23.15;;;9.88;;
53867;SDS011;41577;47.470;19.080;2023-04-24T00:55:06;21.35;;;9.95;;
53867;SDS011;41577;47.470;19.080;2023-04-24T00:55:19;20.92;;;9.55;;
53867;SDS011;41577;47.470;19.080;2023-04-24T00:55:31;20.73;;;9.32;;
53867;SDS011;41577;47.470;19.080;2023-04-24T00:55:43;21.85;;;8.77;;
53867;SDS011;41577;47.470;19.080;2023-04-24T00:55:57;22.15;;;8.38;;
53867;SDS011;41577;47.470;19.080;2023-04-24T00:56:09;23.50;;;9.02;;
53867;SDS011;41577;47.470;19.080;2023-04-24T00:56:22;18.52;;;9.73;;
53867;SDS011;41577;47.470;19.080;2023-04-24T00:56:33;19.20;;;9.15;;
53867;SDS011;41577;47.470;19.080;2023-04-24T00:56:45;17.52;;;8.70;;
53867;SDS011;41577;47.470;19.080;2023-04-24T00:56:57;15.57;;;7.70;;
53867;SDS011;41577;47.470;19.080;2023-04-24T00:57:10;16.15;;;7.35;;
53867;SDS011;41577;47.470;19.080;2023-04-24T00:57:21;14.38;;;6.82;;
53867;SDS011;41577;47.470;19.080;2023-04-24T00:57:33;12.02;;;6.45;;
53867;SDS011;41577;47.470;19.080;2023-04-24T00:57:45;11.57;;;6.07;;
53867;SDS011;41577;47.470;19.080;2023-04-24T00:57:58;13.00;;;6.22;;
53867;SDS011;41577;47.470;19.080;2023-04-24T00:58:10;13.80;;;6.43;;
53867;SDS011;41577;47.470;19.080;2023-04-24T00:58:22;14.35;;;6.53;;
53867;SDS011;41577;47.470;19.080;2023-04-24T00:58:35;19.45;;;6.72;;
53867;SDS011;41577;47.470;19.080;2023-04-24T00:58:47;20.60;;;7.60;;
53867;SDS011;41577;47.470;19.080;2023-04-24T00:58:59;22.23;;;11.23;;
53867;SDS011;41577;47.470;19.080;2023-04-24T00:59:11;27.25;;;15.95;;
53867;SDS011;41577;47.470;19.080;2023-04-24T00:59:23;34.70;;;17.98;;
53867;SDS011;41577;47.470;19.080;2023-04-24T00:59:35;38.08;;;18.45;;
53867;SDS011;41577;47.470;19.080;2023-04-24T00:59:47;43.45;;;17.90;;
53867;SDS011;41577;47.470;19.080;2023-04-24T00:59:59;38.67;;;16.40;;
53867;SDS011;41577;47.470;19.080;2023-04-24T01:00:11;32.78;;;14.20;;
53867;SDS011;41577;47.470;19.080;2023-04-24T01:00:26;34.47;;;12.48;;
53867;SDS011;41577;47.470;19.080;2023-04-24T01:00:38;40.40;;;11.25;;
53867;SDS011;41577;47.470;19.080;2023-04-24T01:00:50;41.72;;;10.02;;
53867;SDS011;41577;47.470;19.080;2023-04-24T01:01:03;29.52;;;9.38;;
53867;SDS011;41577;47.470;19.080;2023-04-24T01:01:15;22.40;;;9.38;;
53867;SDS011;41577;47.470;19.080;2023-04-24T01:01:28;19.70;;;8.90;;
53867;SDS011;41577;47.470;19.080;2023-04-24T01:01:40;16.70;;;8.07;;
53867;SDS011;41577;47.470;19.080;2023-04-24T01:01:52;16.23;;;7.32;;
53867;SDS011;41577;47.470;19.080;2023-04-24T01:02:05;14.18;;;6.60;;
53867;SDS011;41577;47.470;19.080;2023-04-24T01:02:17;15.88;;;6.88;;
53867;SDS011;41577;47.470;19.080;2023-04-24T01:02:29;15.18;;;6.80;;
53867;SDS011;41577;47.470;19.080;2023-04-24T01:02:41;14.98;;;6.75;;
53867;SDS011;41577;47.470;19.080;2023-04-24T01:02:55;12.88;;;6.38;;
53867;SDS011;41577;47.470;19.080;2023-04-24T01:03:10;16.27;;;6.55;;
53867;SDS011;41577;47.470;19.080;2023-04-24T01:03:24;19.10;;;6.47;;
53867;SDS011;41577;47.470;19.080;2023-04-24T01:03:38;15.73;;;6.38;;
53867;SDS011;41577;47.470;19.080;2023-04-24T01:03:51;12.32;;;6.78;;
53867;SDS011;41577;47.470;19.080;2023-04-24T01:04:05;14.93;;;6.57;;
53867;SDS011;41577;47.470;19.080;2023-04-24T01:04:17;16.52;;;5.95;;
53867;SDS011;41577;47.470;19.080;2023-04-24T01:04:29;16.13;;;6.20;;
53867;SDS011;41577;47.470;19.080;2023-04-24T01:04:41;13.27;;;6.45;;
53867;SDS011;41577;47.470;19.080;2023-04-24T01:04:56;19.58;;;6.40;;
53867;SDS011;41577;47.470;19.080;2023-04-24T01:05:09;16.38;;;5.88;;
53867;SDS011;41577;47.470;19.080;2023-04-24T01:05:22;13.00;;;5.90;;
53867;SDS011;41577;47.470;19.080;2023-04-24T01:05:34;15.15;;;5.93;;
53867;SDS011;41577;47.470;19.080;2023-04-24T01:05:46;19.58;;;6.40;;
53867;SDS011;41577;47.470;19.080;2023-04-24T01:05:58;18.17;;;6.40;;
53867;SDS011;41577;47.470;19.080;2023-04-24T01:06:11;9.93;;;5.85;;
53867;SDS011;41577;47.470;19.080;2023-04-24T01:06:26;9.65;;;5.72;;
53867;SDS011;41577;47.470;19.080;2023-04-24T01:06:39;13.50;;;5.72;;
53867;SDS011;41577;47.470;19.080;2023-04-24T01:06:53;19.08;;;5.72;;
53867;SDS011;41577;47.470;19.080;2023-04-24T01:07:06;18.77;;;5.95;;
53867;SDS011;41577;47.470;19.080;2023-04-24T01:07:19;14.43;;;6.63;;
53867;SDS011;41577;47.470;19.080;2023-04-24T01:07:31;13.60;;;6.32;;
53867;SDS011;41577;47.470;19.080;2023-04-24T01:07:45;18.98;;;6.18;;
53867;SDS011;41577;47.470;19.080;2023-04-24T01:07:57;20.00;;;6.50;;
53867;SDS011;41577;47.470;19.080;2023-04-24T01:08:10;14.00;;;6.70;;
53867;SDS011;41577;47.470;19.080;2023-04-24T01:08:22;14.70;;;6.50;;
53867;SDS011;41577;47.470;19.080;2023-04-24T01:08:35;14.05;;;6.07;;
53867;SDS011;41577;47.470;19.080;2023-04-24T01:08:48;11.27;;;6.07;;
53867;SDS011;41577;47.470;19.080;2023-04-24T01:09:00;11.35;;;6.38;;
53867;SDS011;41577;47.470;19.080;2023-04-24T01:09:14;13.75;;;6.63;;
53867;SDS011;41577;47.470;19.080;2023-04-24T01:09:26;15.35;;;6.53;;
53867;SDS011;41577;47.470;19.080;2023-04-24T01:09:38;15.25;;;6.47;;
53867;SDS011;41577;47.470;19.080;2023-04-24T01:09:52;15.05;;;6.55;;
53867;SDS011;41577;47.470;19.080;2023-04-24T01:10:04;15.30;;;6.45;;
53867;SDS011;41577;47.470;19.080;2023-04-24T01:10:18;16.20;;;6.68;;
53867;SDS011;41577;47.470;19.080;2023-04-24T01:10:30;15.90;;;6.78;;
53867;SDS011;41577;47.470;19.080;2023-04-24T01:10:44;16.00;;;6.55;;
53867;SDS011;41577;47.470;19.080;2023-04-24T01:10:56;18.42;;;6.35;;
53867;SDS011;41577;47.470;19.080;2023-04-24T01:11:09;17.05;;;6.75;;
53867;SDS011;41577;47.470;19.080;2023-04-24T01:11:22;13.82;;;7.07;;
53867;SDS011;41577;47.470;19.080;2023-04-24T01:11:34;16.73;;;7.47;;
53867;SDS011;41577;47.470;19.080;2023-04-24T01:11:46;16.83;;;8.05;;